Time;durP1;ratioP1;P1;durP2;ratioP2;P2;SDS_P1;SDS_P2;PMS_P1;PMS_P2;Temp;Humidity;BMP_temperature;BMP_pressure;BME280_temperature;BME280_humidity;BME280_pressure;Samples;Min_cycle;Max_cycle;Signal;HPM_P1;HPM_P2
2024/04/13 00:01:27;;;;;;;6.03;4.73;;;;;;;15.40;96.03;101861.75;5342013;26;20275;-86
2024/04/13 00:03:53;;;;;;;6.93;4.57;;;;;;;15.37;96.18;101858.41;5342104;26;20269;-86
2024/04/13 00:06:21;;;;;;;5.33;4.43;;;;;;;15.36;96.30;101862.03;5338857;26;20241;-86
2024/04/13 00:08:47;;;;;;;7.97;5.17;;;;;;;15.35;96.79;101871.06;5337164;26;20591;-86
2024/04/13 00:11:15;;;;;;;6.10;4.53;;;;;;;15.34;97.01;101861.28;5336940;26;20264;-87
2024/04/13 00:13:43;;;;;;;8.77;5.37;;;;;;;15.33;97.17;101862.25;5334880;26;20237;-86
2024/04/13 00:16:11;;;;;;;10.40;5.33;;;;;;;15.33;97.04;101859.56;5340192;26;20279;-87
2024/04/13 00:18:37;;;;;;;5.83;5.23;;;;;;;15.32;97.15;101857.81;5343683;26;20235;-86
2024/04/13 00:21:06;;;;;;;6.63;5.00;;;;;;;15.31;97.47;101850.72;5342960;26;20268;-85
2024/04/13 00:23:32;;;;;;;7.10;6.03;;;;;;;15.33;97.16;101857.72;5341037;26;20628;-85
2024/04/13 00:26:00;;;;;;;8.63;4.73;;;;;;;15.34;97.75;101853.22;5337424;26;20295;-86
2024/04/13 00:28:26;;;;;;;6.53;5.30;;;;;;;15.31;97.55;101854.28;5345058;26;20237;-86
2024/04/13 00:30:57;;;;;;;5.70;5.17;;;;;;;15.31;97.94;101856.09;5343370;26;20287;-86
2024/04/13 00:33:23;;;;;;;6.53;5.20;;;;;;;15.31;97.76;101856.97;5345018;26;20338;-85
2024/04/13 00:35:51;;;;;;;8.73;5.53;;;;;;;15.29;97.65;101858.88;5340220;26;20276;-86
2024/04/13 00:38:17;;;;;;;7.70;4.90;;;;;;;15.28;98.06;101852.66;5332302;26;20258;-87
2024/04/13 00:40:45;;;;;;;6.70;5.63;;;;;;;15.27;98.24;101850.06;5344190;26;20234;-87
2024/04/13 00:43:12;;;;;;;7.33;5.13;;;;;;;15.25;98.44;101846.59;5324554;26;20233;-87
2024/04/13 00:45:45;;;;;;;9.10;6.70;;;;;;;15.26;97.92;101848.34;5342155;26;20345;-85
2024/04/13 00:48:16;;;;;;;8.73;6.57;;;;;;;15.23;98.48;101852.06;5330650;26;20288;-86
2024/04/13 00:50:47;;;;;;;9.57;6.10;;;;;;;15.22;98.65;101846.84;5335864;26;20571;-86
2024/04/13 00:53:16;;;;;;;7.50;5.67;;;;;;;15.18;98.44;101838.09;5331493;26;20360;-85
2024/04/13 00:55:44;;;;;;;7.50;5.87;;;;;;;15.17;98.87;101835.53;5341602;26;20299;-86
2024/04/13 00:58:11;;;;;;;6.93;5.53;;;;;;;15.15;99.43;101837.44;5342896;26;20669;-86
2024/04/13 01:00:40;;;;;;;8.57;5.90;;;;;;;15.15;99.45;101837.44;5342560;26;20257;-85
2024/04/13 01:03:06;;;;;;;8.80;5.73;;;;;;;15.13;99.43;101837.53;5344160;26;20246;-85
2024/04/13 01:05:38;;;;;;;8.30;5.70;;;;;;;15.12;99.39;101833.13;5325218;26;20592;-86
2024/04/13 01:08:04;;;;;;;7.27;5.87;;;;;;;15.12;99.76;101827.75;5343249;26;20350;-86
2024/04/13 01:10:33;;;;;;;7.10;6.33;;;;;;;15.10;99.50;101818.94;5333771;26;20257;-86
2024/04/13 01:12:59;;;;;;;7.43;6.13;;;;;;;15.06;100.00;101825.44;5343177;26;20269;-86
2024/04/13 01:15:27;;;;;;;7.97;6.43;;;;;;;15.04;100.00;101822.03;5334255;26;20584;-85
2024/04/13 01:17:53;;;;;;;7.30;6.50;;;;;;;15.03;100.00;101817.63;5335401;26;20265;-86
2024/04/13 01:20:22;;;;;;;6.77;5.97;;;;;;;15.02;100.00;101832.00;5333959;26;20289;-87
2024/04/13 01:22:51;;;;;;;8.07;6.13;;;;;;;15.00;100.00;101825.84;5332242;26;20233;-86
2024/04/13 01:25:23;;;;;;;8.63;6.40;;;;;;;14.99;100.00;101826.81;5337073;26;20377;-87
2024/04/13 01:27:49;;;;;;;7.87;6.43;;;;;;;14.95;100.00;101822.59;5338660;26;20240;-87
2024/04/13 01:30:20;;;;;;;9.17;6.47;;;;;;;14.96;100.00;101836.88;5334372;26;20275;-86
2024/04/13 01:32:46;;;;;;;7.90;6.00;;;;;;;14.96;100.00;101832.38;5339508;26;20279;-87
2024/04/13 01:35:18;;;;;;;6.83;6.03;;;;;;;14.93;100.00;101824.50;5336456;26;20276;-86
2024/04/13 01:37:44;;;;;;;8.57;6.80;;;;;;;14.91;100.00;101815.69;5341521;26;20369;-86
2024/04/13 01:40:13;;;;;;;10.63;7.40;;;;;;;14.90;100.00;101825.56;5341425;26;20238;-86
2024/04/13 01:42:41;;;;;;;9.30;7.27;;;;;;;14.91;100.00;101821.06;5341207;26;20377;-85
2024/04/13 01:45:10;;;;;;;11.53;7.40;;;;;;;14.90;100.00;101820.19;5342738;26;20611;-86
2024/04/13 01:47:35;;;;;;;13.10;6.97;;;;;;;14.86;100.00;101816.00;5343165;26;20289;-86
2024/04/13 01:50:04;;;;;;;9.40;6.97;;;;;;;14.86;100.00;101815.13;5342674;26;20341;-86
2024/04/13 01:52:30;;;;;;;8.07;7.07;;;;;;;14.84;100.00;101809.00;5336542;26;20237;-86
2024/04/13 01:54:59;;;;;;;9.87;6.93;;;;;;;14.82;100.00;101810.91;5335595;26;20368;-87
2024/04/13 01:57:25;;;;;;;10.17;6.83;;;;;;;14.81;100.00;101801.16;5336424;26;20241;-86
2024/04/13 01:59:56;;;;;;;11.07;7.20;;;;;;;14.80;100.00;101799.44;5330938;26;20582;-85
2024/04/13 02:02:21;;;;;;;9.77;6.93;;;;;;;14.78;100.00;101804.03;5342129;26;20264;-86
2024/04/13 02:04:50;;;;;;;7.57;6.60;;;;;;;14.75;100.00;101801.53;5342691;26;20234;-86
2024/04/13 02:07:15;;;;;;;9.90;6.23;;;;;;;14.71;100.00;101792.81;5329433;26;20254;-86
2024/04/13 02:09:44;;;;;;;8.77;6.47;;;;;;;14.66;100.00;101786.03;5335407;26;20283;-86
2024/04/13 02:12:10;;;;;;;7.30;6.60;;;;;;;14.64;100.00;101788.81;5342445;26;20272;-86
2024/04/13 02:14:38;;;;;;;11.73;6.47;;;;;;;14.62;100.00;101804.13;5343819;26;20233;-86
2024/04/13 02:17:06;;;;;;;9.60;5.87;;;;;;;14.58;100.00;101790.03;5330766;26;20241;-87
2024/04/13 02:19:35;;;;;;;6.90;5.93;;;;;;;14.57;100.00;101800.84;5327945;26;20233;-86
2024/04/13 02:22:00;;;;;;;11.50;6.97;;;;;;;14.53;100.00;101801.97;5333732;26;20303;-86
2024/04/13 02:24:29;;;;;;;8.47;6.40;;;;;;;14.50;100.00;101803.06;5323080;26;20238;-86
2024/04/13 02:26:55;;;;;;;9.10;7.13;;;;;;;14.49;100.00;101803.16;5335314;26;20260;-86
2024/04/13 02:29:25;;;;;;;8.97;6.23;;;;;;;14.48;100.00;101804.09;5332600;26;20361;-86
2024/04/13 02:31:51;;;;;;;8.97;6.60;;;;;;;14.43;100.00;101796.34;5328156;26;20239;-86
2024/04/13 02:34:22;;;;;;;9.57;7.07;;;;;;;14.39;100.00;101796.56;5325775;26;20311;-86
2024/04/13 02:36:48;;;;;;;9.03;6.80;;;;;;;14.37;100.00;101794.00;5328668;26;20618;-86
2024/04/13 02:39:18;;;;;;;7.70;6.10;;;;;;;14.32;100.00;101790.75;5341507;26;20291;-86
2024/04/13 02:41:43;;;;;;;14.83;6.90;;;;;;;14.29;100.00;101798.97;5323552;26;20277;-86
2024/04/13 02:44:12;;;;;;;8.83;6.83;;;;;;;14.24;100.00;101783.16;5318741;26;20725;-85
2024/04/13 02:46:37;;;;;;;8.87;7.80;;;;;;;14.22;100.00;101785.06;5335663;26;20773;-87
2024/04/13 02:49:06;;;;;;;8.87;7.30;;;;;;;14.19;100.00;101789.75;5330144;26;20245;-86
2024/04/13 02:51:35;;;;;;;12.07;7.57;;;;;;;14.17;100.00;101786.28;5330747;26;20380;-86
2024/04/13 02:54:03;;;;;;;10.30;7.60;;;;;;;14.14;100.00;101792.72;5340996;26;20241;-86
2024/04/13 02:56:29;;;;;;;7.90;6.57;;;;;;;14.11;100.00;101782.19;5335456;26;20344;-87
2024/04/13 02:58:57;;;;;;;8.87;7.70;;;;;;;14.07;100.00;101782.47;5337422;26;20240;-87
2024/04/13 03:01:23;;;;;;;9.07;7.83;;;;;;;14.07;100.00;101786.00;5340755;26;20605;-85
2024/04/13 03:03:51;;;;;;;11.87;7.90;;;;;;;14.05;100.00;101779.00;5334795;26;20289;-86
2024/04/13 03:06:17;;;;;;;11.17;7.20;;;;;;;14.05;100.00;101770.97;5342162;26;20800;-86
2024/04/13 03:08:50;;;;;;;8.93;7.70;;;;;;;14.06;100.00;101765.53;5319583;26;20310;-87
2024/04/13 03:11:18;;;;;;;10.80;7.30;;;;;;;14.08;100.00;101770.78;5336421;26;20245;-87
2024/04/13 03:13:45;;;;;;;10.13;7.40;;;;;;;14.10;100.00;101769.75;5336769;26;20279;-87
2024/04/13 03:16:14;;;;;;;8.77;7.10;;;;;;;14.11;100.00;101770.63;5339573;26;20233;-86
2024/04/13 03:18:41;;;;;;;11.43;7.80;;;;;;;14.10;100.00;101763.53;5337291;26;20295;-86
2024/04/13 03:21:10;;;;;;;10.10;7.30;;;;;;;14.11;100.00;101765.25;5340522;26;20299;-89
2024/04/13 03:23:38;;;;;;;10.63;7.60;;;;;;;14.10;100.00;101766.22;5343096;26;21228;-87
2024/04/13 03:26:09;;;;;;;9.23;7.50;;;;;;;14.10;100.00;101767.06;5341049;26;20288;-86
2024/04/13 03:28:35;;;;;;;12.10;7.83;;;;;;;14.09;100.00;101759.13;5342230;26;20291;-87
2024/04/13 03:31:03;;;;;;;9.20;7.10;;;;;;;14.10;100.00;101769.75;5327819;26;20238;-87
2024/04/13 03:33:29;;;;;;;12.10;7.70;;;;;;;14.08;100.00;101755.59;5326534;26;20343;-86
2024/04/13 03:36:02;;;;;;;11.03;7.80;;;;;;;14.10;100.00;101759.03;5335381;26;20268;-87
2024/04/13 03:38:30;;;;;;;11.53;7.53;;;;;;;14.10;100.00;101764.38;5327976;26;20283;-87
2024/04/13 03:41:05;;;;;;;10.73;7.40;;;;;;;14.11;100.00;101765.25;5338225;26;20237;-88
2024/04/13 03:43:36;;;;;;;11.83;7.30;;;;;;;14.10;100.00;101763.53;5340643;26;20283;-88
2024/04/13 03:46:03;;;;;;;9.07;6.77;;;;;;;14.11;100.00;101766.13;5336273;26;20276;-87
2024/04/13 03:48:31;;;;;;;8.53;6.60;;;;;;;14.10;100.00;101764.38;5332879;26;20582;-88
2024/04/13 03:51:00;;;;;;;10.00;6.93;;;;;;;14.12;100.00;101761.63;5341106;26;20257;-88
2024/04/13 03:53:28;;;;;;;9.03;6.77;;;;;;;14.13;100.00;101769.56;5331711;26;20237;-88
2024/04/13 03:55:54;;;;;;;9.63;6.83;;;;;;;14.13;100.00;101766.03;5336578;26;20291;-86
2024/04/13 03:58:23;;;;;;;10.97;6.97;;;;;;;14.12;100.00;101764.31;5324167;26;20233;-87
2024/04/13 04:00:51;;;;;;;9.47;6.90;;;;;;;14.14;100.00;101763.25;5336340;26;20237;-86
2024/04/13 04:03:19;;;;;;;8.93;6.60;;;;;;;14.14;100.00;101760.56;5333809;26;20304;-87
2024/04/13 04:05:47;;;;;;;7.80;6.63;;;;;;;14.14;100.00;101760.56;5333689;26;20237;-87
2024/04/13 04:08:16;;;;;;;11.93;7.73;;;;;;;14.15;100.00;101761.44;5324318;26;20879;-87
2024/04/13 04:10:41;;;;;;;7.97;6.53;;;;;;;14.16;100.00;101768.50;5329500;26;20237;-86
2024/04/13 04:13:10;;;;;;;10.73;7.47;;;;;;;14.16;100.00;101757.78;5326397;26;20237;-87
2024/04/13 04:15:36;;;;;;;16.47;8.80;;;;;;;14.17;100.00;101760.38;5327116;26;20271;-86
2024/04/13 04:18:07;;;;;;;12.13;6.93;;;;;;;14.17;100.00;101767.53;5338879;26;20245;-87
2024/04/13 04:20:33;;;;;;;8.83;6.93;;;;;;;14.15;100.00;101766.81;5327139;26;20289;-86
2024/04/13 04:23:02;;;;;;;10.40;6.93;;;;;;;14.17;100.00;101762.19;5325080;26;20356;-87
2024/04/13 04:25:28;;;;;;;10.70;6.90;;;;;;;14.18;100.00;101770.13;5343103;26;20233;-87
2024/04/13 04:27:57;;;;;;;10.13;7.13;;;;;;;14.23;100.00;101765.38;5340805;26;20304;-86
2024/04/13 04:30:22;;;;;;;8.03;6.57;;;;;;;14.22;100.00;101768.13;5345110;26;20248;-86
2024/04/13 04:32:51;;;;;;;10.50;6.80;;;;;;;14.22;100.00;101768.13;5333369;26;20237;-87
2024/04/13 04:35:19;;;;;;;9.57;6.77;;;;;;;14.22;100.00;101778.84;5340369;26;20236;-87
2024/04/13 04:37:48;;;;;;;7.70;6.23;;;;;;;14.20;100.00;101784.31;5339509;26;20240;-86
2024/04/13 04:40:13;;;;;;;9.07;7.07;;;;;;;14.17;100.00;101778.25;5322761;26;20741;-86
2024/04/13 04:42:42;;;;;;;9.93;6.47;;;;;;;14.19;100.00;101779.91;5340041;26;20319;-87
2024/04/13 04:45:07;;;;;;;10.07;7.43;;;;;;;14.19;100.00;101782.56;5335424;26;20292;-87
2024/04/13 04:47:36;;;;;;;11.57;7.90;;;;;;;14.18;100.00;101778.16;5342816;26;20588;-87
2024/04/13 04:50:03;;;;;;;8.27;6.73;;;;;;;14.17;100.00;101791.66;5333725;26;20245;-86
2024/04/13 04:52:34;;;;;;;10.47;6.67;;;;;;;14.18;100.00;101791.56;5339893;26;20299;-86
2024/04/13 04:55:01;;;;;;;7.63;6.67;;;;;;;14.18;100.00;101790.69;5344633;26;20741;-85
2024/04/13 04:57:29;;;;;;;11.97;7.87;;;;;;;14.15;100.00;101783.72;5340133;26;20296;-85
2024/04/13 04:59:55;;;;;;;11.13;7.30;;;;;;;14.17;100.00;101797.00;5340684;26;20295;-85
2024/04/13 05:02:24;;;;;;;9.30;7.00;;;;;;;14.19;100.00;101793.28;5344476;26;20237;-85
2024/04/13 05:04:50;;;;;;;12.57;7.40;;;;;;;14.18;100.00;101796.06;5332409;26;20813;-85
2024/04/13 05:07:19;;;;;;;8.70;7.17;;;;;;;14.17;100.00;101797.88;5335695;26;20237;-85
2024/04/13 05:09:47;;;;;;;10.27;6.97;;;;;;;14.18;100.00;101802.28;5345321;26;20233;-86
2024/04/13 05:12:16;;;;;;;10.37;6.67;;;;;;;14.21;100.00;101795.88;5342760;26;20260;-87
2024/04/13 05:14:41;;;;;;;10.43;7.20;;;;;;;14.25;100.00;101802.78;5337034;26;20230;-86
2024/04/13 05:17:13;;;;;;;7.63;6.83;;;;;;;14.24;100.00;101799.25;5343324;26;20292;-86
2024/04/13 05:19:39;;;;;;;12.27;7.00;;;;;;;14.29;100.00;101804.34;5333004;26;20252;-85
2024/04/13 05:22:07;;;;;;;9.80;7.20;;;;;;;14.29;100.00;101807.00;5344345;26;20346;-85
2024/04/13 05:24:33;;;;;;;9.10;6.40;;;;;;;14.33;100.00;101808.53;5335922;26;20608;-85
2024/04/13 05:27:06;;;;;;;8.70;6.60;;;;;;;14.33;100.00;101797.81;5342892;26;20605;-87
2024/04/13 05:29:34;;;;;;;8.90;6.53;;;;;;;14.36;100.00;101797.63;5338605;26;20234;-85
2024/04/13 05:32:02;;;;;;;9.37;6.23;;;;;;;14.42;100.00;101797.28;5345825;26;20233;-86
2024/04/13 05:34:28;;;;;;;8.93;7.20;;;;;;;14.48;100.00;101796.06;5339405;26;20255;-86
2024/04/13 05:36:56;;;;;;;7.67;5.40;;;;;;;14.52;100.00;101798.44;5332979;26;20252;-86
2024/04/13 05:39:22;;;;;;;11.30;6.77;;;;;;;14.58;100.00;101790.03;5339866;26;20287;-85
2024/04/13 05:41:51;;;;;;;7.67;6.40;;;;;;;14.65;100.00;101798.56;5342115;26;20292;-86
2024/04/13 05:44:19;;;;;;;9.33;6.10;;;;;;;14.72;100.00;101799.88;5335061;26;20249;-86
2024/04/13 05:46:50;;;;;;;7.70;5.73;;;;;;;14.75;100.00;101798.84;5338409;26;20288;-86
2024/04/13 05:49:16;;;;;;;11.50;6.50;;;;;;;14.81;100.00;101801.16;5330411;26;20272;-86
2024/04/13 05:51:44;;;;;;;8.67;6.50;;;;;;;14.86;100.00;101796.38;5336279;26;20573;-84
2024/04/13 05:54:12;;;;;;;8.70;5.43;;;;;;;14.90;100.00;101801.41;5340898;26;20234;-86
2024/04/13 05:56:38;;;;;;;7.03;5.80;;;;;;;15.01;99.99;101802.56;5316981;26;20301;-86
2024/04/13 05:59:07;;;;;;;8.43;6.10;;;;;;;15.09;99.68;101793.06;5339241;26;20251;-85
2024/04/13 06:01:35;;;;;;;9.30;5.50;;;;;;;15.17;98.61;101796.13;5334267;26;20290;-86
2024/04/13 06:04:04;;;;;;;7.93;5.27;;;;;;;15.21;98.31;101784.25;5340763;26;20281;-87
2024/04/13 06:06:30;;;;;;;5.90;5.13;;;;;;;15.25;97.99;101798.31;5330100;26;20238;-87
2024/04/13 06:08:58;;;;;;;5.77;5.00;;;;;;;15.36;97.33;101789.56;5343025;26;20243;-87
2024/04/13 06:11:24;;;;;;;8.10;5.50;;;;;;;15.43;96.76;101791.72;5338574;26;20242;-87
2024/04/13 06:13:52;;;;;;;8.20;5.20;;;;;;;15.50;97.09;101792.22;5337030;26;20799;-87
2024/04/13 06:16:18;;;;;;;8.43;4.57;;;;;;;15.65;95.80;101790.34;5336441;26;20255;-86
2024/04/13 06:18:49;;;;;;;7.63;5.00;;;;;;;15.78;95.28;101791.25;5342836;26;20746;-86
2024/04/13 06:21:15;;;;;;;9.47;5.70;;;;;;;15.93;94.14;101795.63;5336500;26;20239;-86
2024/04/13 06:23:43;;;;;;;8.83;5.00;;;;;;;16.06;93.68;101793.81;5336641;26;20232;-86
2024/04/13 06:26:09;;;;;;;7.57;5.50;;;;;;;16.17;93.15;101788.56;5341632;26;20868;-87
2024/04/13 06:28:40;;;;;;;7.80;5.00;;;;;;;16.29;92.06;101786.88;5335578;26;20238;-86
2024/04/13 06:31:06;;;;;;;7.23;4.73;;;;;;;16.40;91.03;101784.28;5333488;26;20359;-86
2024/04/13 06:33:35;;;;;;;8.37;4.83;;;;;;;16.51;91.15;101779.00;5339123;26;20353;-86
2024/04/13 06:36:04;;;;;;;6.37;4.10;;;;;;;16.64;89.78;101774.53;5339446;26;20235;-86
2024/04/13 06:38:32;;;;;;;5.40;4.20;;;;;;;16.76;89.52;101774.63;5341130;26;20257;-85
2024/04/13 06:40:58;;;;;;;6.87;4.60;;;;;;;16.84;88.38;101773.09;5338539;26;20237;-86
2024/04/13 06:43:27;;;;;;;7.83;4.87;;;;;;;16.95;87.86;101775.88;5329370;26;20280;-86
2024/04/13 06:45:52;;;;;;;5.57;4.27;;;;;;;17.07;86.21;101767.88;5337202;26;20256;-86
2024/04/13 06:48:21;;;;;;;5.30;4.10;;;;;;;17.12;85.21;101763.88;5331857;26;20239;-86
2024/04/13 06:50:46;;;;;;;5.27;4.00;;;;;;;17.18;84.74;101771.53;5335722;26;20278;-86
2024/04/13 06:53:18;;;;;;;6.47;4.37;;;;;;;17.29;84.10;101763.50;5336044;26;20245;-86
2024/04/13 06:55:45;;;;;;;8.57;4.03;;;;;;;17.40;83.81;101767.22;5320443;26;20254;-86
2024/04/13 06:58:13;;;;;;;7.90;4.23;;;;;;;17.49;82.79;101769.25;5337452;26;20306;-86
2024/04/13 07:00:38;;;;;;;6.50;4.20;;;;;;;17.54;81.38;101762.56;5333105;26;20636;-86
2024/04/13 07:03:07;;;;;;;5.30;3.50;;;;;;;17.63;80.96;101760.97;5340430;26;20275;-86
2024/04/13 07:05:33;;;;;;;4.77;3.70;;;;;;;17.70;80.67;101756.91;5338378;26;20253;-86
2024/04/13 07:08:01;;;;;;;5.77;3.60;;;;;;;17.77;78.93;101755.44;5339212;26;20868;-85
2024/04/13 07:10:32;;;;;;;4.93;3.67;;;;;;;17.80;78.00;101747.13;5328490;26;20254;-86
2024/04/13 07:13:01;;;;;;;5.37;3.23;;;;;;;17.86;77.42;101754.75;5335490;26;20239;-87
2024/04/13 07:15:26;;;;;;;4.23;3.23;;;;;;;17.92;76.48;101751.56;5337261;26;20245;-85
2024/04/13 07:17:55;;;;;;;5.53;3.20;;;;;;;18.01;74.36;101756.25;5338424;26;20333;-85
2024/04/13 07:20:20;;;;;;;4.03;2.80;;;;;;;18.07;73.83;101765.72;5332200;26;20283;-86
2024/04/13 07:22:49;;;;;;;4.00;3.07;;;;;;;18.19;73.20;101758.50;5339450;26;20251;-86
2024/04/13 07:25:14;;;;;;;3.90;3.10;;;;;;;18.25;72.22;101748.13;5333457;26;20237;-86
2024/04/13 07:27:45;;;;;;;4.57;3.00;;;;;;;18.32;70.82;101748.47;5339513;26;20242;-86
2024/04/13 07:30:11;;;;;;;3.90;2.50;;;;;;;18.40;70.53;101743.34;5336225;26;20231;-86
2024/04/13 07:32:39;;;;;;;3.80;2.77;;;;;;;18.52;70.81;101747.78;5331440;26;20287;-86
2024/04/13 07:35:07;;;;;;;3.33;2.80;;;;;;;18.64;69.99;101733.31;5341163;26;20237;-85
2024/04/13 07:37:35;;;;;;;3.60;2.60;;;;;;;18.78;69.58;101742.19;5340560;26;20303;-87
2024/04/13 07:40:01;;;;;;;3.70;2.50;;;;;;;18.90;67.31;101742.03;5337860;26;20234;-87
2024/04/13 07:42:29;;;;;;;5.37;2.57;;;;;;;19.01;66.69;101741.16;5332201;26;20295;-86
2024/04/13 07:44:58;;;;;;;2.63;2.00;;;;;;;19.04;66.01;101744.47;5339714;26;20252;-86
2024/04/13 07:47:26;;;;;;;4.47;2.80;;;;;;;19.08;66.17;101740.53;5336570;26;20235;-87
2024/04/13 07:49:53;;;;;;;4.90;2.47;;;;;;;19.10;65.04;101745.81;5333088;26;20884;-87
2024/04/13 07:52:21;;;;;;;4.17;2.80;;;;;;;19.13;64.84;101737.47;5337792;26;20255;-87
2024/04/13 07:54:49;;;;;;;3.17;2.17;;;;;;;19.18;64.95;101742.47;5332235;26;20244;-87
2024/04/13 07:57:17;;;;;;;6.17;2.23;;;;;;;19.19;63.86;101739.63;5338117;26;20303;-87
2024/04/13 07:59:43;;;;;;;4.30;2.10;;;;;;;19.27;63.67;101731.78;5342153;26;20249;-87
2024/04/13 08:02:14;;;;;;;4.40;2.73;;;;;;;19.32;62.59;101729.56;5345044;26;20749;-87
2024/04/13 08:04:39;;;;;;;5.77;2.40;;;;;;;19.40;62.38;101737.00;5340681;26;20288;-87
2024/04/13 08:07:08;;;;;;;3.23;2.20;;;;;;;19.53;62.54;101724.22;5342879;26;20569;-86
2024/04/13 08:09:36;;;;;;;2.97;2.50;;;;;;;19.67;61.38;101729.34;5341955;26;20230;-85
2024/04/13 08:12:04;;;;;;;3.90;1.87;;;;;;;19.67;59.35;101729.34;5342775;26;20280;-86
2024/04/13 08:14:33;;;;;;;2.97;2.37;;;;;;;19.72;59.72;101728.94;5333496;26;20242;-86
2024/04/13 08:17:01;;;;;;;3.97;1.90;;;;;;;19.76;60.07;101722.28;5342526;26;20351;-87
2024/04/13 08:19:29;;;;;;;4.03;2.10;;;;;;;19.81;60.40;101730.88;5337943;26;20797;-85
2024/04/13 08:21:58;;;;;;;4.87;2.10;;;;;;;19.90;60.22;101729.22;5334618;26;20317;-86
2024/04/13 08:24:26;;;;;;;4.83;1.70;;;;;;;19.92;59.44;101735.34;5341519;26;20288;-86
2024/04/13 08:26:52;;;;;;;3.47;2.10;;;;;;;20.01;59.74;101731.88;5334898;26;20278;-85
2024/04/13 08:29:20;;;;;;;4.33;1.73;;;;;;;20.10;58.94;101733.75;5343995;26;20584;-85
2024/04/13 08:31:46;;;;;;;4.03;2.33;;;;;;;20.13;58.22;101741.63;5328818;26;20239;-85
2024/04/13 08:34:16;;;;;;;3.60;2.00;;;;;;;20.16;58.43;101743.19;5339083;26;20301;-86
2024/04/13 08:36:44;;;;;;;3.13;1.80;;;;;;;20.19;58.42;101742.94;5332317;26;20642;-86
2024/04/13 08:39:14;;;;;;;4.27;1.90;;;;;;;20.18;57.40;101730.41;5342285;26;20967;-86
2024/04/13 08:41:47;;;;;;;2.80;1.80;;;;;;;20.24;57.32;101746.13;5337661;26;20230;-85
2024/04/13 08:44:15;;;;;;;5.53;2.13;;;;;;;20.28;57.37;101745.69;5342571;26;20282;-86
2024/04/13 08:46:44;;;;;;;5.17;2.13;;;;;;;20.32;58.09;101730.06;5330264;26;20280;-86
2024/04/13 08:49:12;;;;;;;5.27;2.37;;;;;;;20.40;58.85;101735.69;5341423;26;20247;-86
2024/04/13 08:51:39;;;;;;;6.23;2.20;;;;;;;20.46;59.06;101732.44;5337597;26;20236;-86
2024/04/13 08:54:10;;;;;;;2.47;1.80;;;;;;;20.55;59.04;101738.91;5329657;26;20349;-86
2024/04/13 08:56:37;;;;;;;2.50;1.90;;;;;;;20.64;59.60;101736.22;5336816;26;20814;-86
2024/04/13 08:59:09;;;;;;;2.57;1.93;;;;;;;20.72;59.14;101732.84;5343038;26;20360;-85
2024/04/13 09:01:34;;;;;;;2.47;1.90;;;;;;;20.77;58.22;101731.47;5331227;26;20239;-86
2024/04/13 09:04:04;;;;;;;2.90;2.20;;;;;;;20.83;56.99;101724.63;5340510;26;20799;-87
2024/04/13 09:06:30;;;;;;;4.65;2.13;;;;;;;20.93;58.46;101730.09;5337213;26;20235;-87
2024/04/13 09:09:02;;;;;;;2.65;1.70;;;;;;;21.02;56.60;101729.25;5327441;26;20244;-86
2024/04/13 09:11:32;;;;;;;3.33;2.27;;;;;;;21.03;56.87;101725.53;5333565;26;20239;-86
2024/04/13 09:14:00;;;;;;;3.38;1.63;;;;;;;21.03;56.73;101725.53;5336166;26;20659;-86
2024/04/13 09:16:26;;;;;;;2.60;1.83;;;;;;;21.10;56.80;101721.28;5342182;26;20373;-86
2024/04/13 09:18:54;;;;;;;2.92;1.73;;;;;;;21.13;56.41;101713.75;5341061;26;20303;-87
2024/04/13 09:21:20;;;;;;;2.97;1.30;;;;;;;21.22;56.04;101716.63;5335642;26;20240;-86
2024/04/13 09:23:49;;;;;;;2.45;1.65;;;;;;;21.23;56.08;101716.50;5338554;26;20274;-87
2024/04/13 09:26:15;;;;;;;2.50;1.60;;;;;;;21.28;56.78;101716.94;5329228;26;20268;-87
2024/04/13 09:28:47;;;;;;;5.93;2.05;;;;;;;21.33;57.04;101701.09;5337943;26;20232;-85
2024/04/13 09:31:14;;;;;;;3.38;1.75;;;;;;;21.37;56.99;101704.38;5319409;26;20241;-86
2024/04/13 09:33:42;;;;;;;2.92;1.55;;;;;;;21.40;57.27;101706.81;5341361;26;20299;-87
2024/04/13 09:36:08;;;;;;;3.53;1.60;;;;;;;21.40;57.60;101701.38;5340955;26;20282;-88
2024/04/13 09:38:37;;;;;;;4.20;1.85;;;;;;;21.41;57.10;101703.97;5334132;26;20343;-88
2024/04/13 09:41:07;;;;;;;2.42;1.73;;;;;;;21.44;57.40;101687.41;5337546;26;20236;-87
2024/04/13 09:43:35;;;;;;;3.80;1.27;;;;;;;21.51;56.50;101692.25;5338504;26;20352;-87
2024/04/13 09:46:04;;;;;;;2.13;1.60;;;;;;;21.52;56.08;101692.09;5334154;26;20237;-86
2024/04/13 09:48:33;;;;;;;3.58;1.35;;;;;;;21.54;56.28;101692.81;5337338;26;20377;-87
2024/04/13 09:50:58;;;;;;;2.33;1.50;;;;;;;21.62;57.39;101695.69;5343312;26;20287;-88
2024/04/13 09:53:27;;;;;;;2.30;1.52;;;;;;;21.67;57.31;101697.97;5332356;26;20233;-87
2024/04/13 09:55:52;;;;;;;3.60;1.52;;;;;;;21.73;57.22;101681.13;5332295;26;20236;-88
2024/04/13 09:58:21;;;;;;;2.42;1.40;;;;;;;21.77;56.61;101696.97;5333652;26;20240;-87
2024/04/13 10:00:46;;;;;;;3.08;1.17;;;;;;;21.78;56.92;101685.13;5330949;26;20239;-87
2024/04/13 10:03:18;;;;;;;2.42;1.45;;;;;;;21.76;56.34;101684.41;5333019;26;20230;-88
2024/04/13 10:05:44;;;;;;;2.10;1.50;;;;;;;21.76;56.65;101672.69;5333295;26;20287;-88
2024/04/13 10:08:14;;;;;;;3.72;1.60;;;;;;;21.76;57.26;101667.28;5340676;26;20907;-87
2024/04/13 10:10:43;;;;;;;2.90;1.77;;;;;;;21.81;57.98;101673.13;5339921;26;20229;-87
2024/04/13 10:13:15;;;;;;;3.03;1.70;;;;;;;21.88;57.91;101674.25;5338884;26;20248;-87
2024/04/13 10:15:42;;;;;;;3.42;1.85;;;;;;;21.91;58.29;101663.09;5336155;26;20232;-87
2024/04/13 10:18:11;;;;;;;2.08;1.30;;;;;;;21.93;57.94;101652.97;5340786;26;20617;-88
2024/04/13 10:20:39;;;;;;;1.90;1.65;;;;;;;22.00;57.75;101659.56;5341057;26;20229;-87
2024/04/13 10:23:11;;;;;;;3.40;1.48;;;;;;;22.02;57.43;101660.28;5338364;26;20256;-87
2024/04/13 10:25:36;;;;;;;3.78;1.50;;;;;;;22.06;57.85;101652.66;5341104;26;20268;-87
2024/04/13 10:28:07;;;;;;;2.97;2.13;;;;;;;22.10;58.65;101645.94;5333851;26;20659;-87
2024/04/13 10:30:47;;;;;;;2.83;1.90;;;;;;;22.16;58.00;101646.22;5337483;26;20245;-87
2024/04/13 10:33:23;;;;;;;2.33;1.80;;;;;;;22.21;58.21;101636.81;5338456;26;20237;-87
2024/04/13 10:35:57;;;;;;;3.47;1.90;;;;;;;22.24;58.45;101640.03;5331907;26;20287;-87
2024/04/13 10:38:26;;;;;;;2.25;1.48;;;;;;;22.30;57.07;101631.31;5333631;26;20233;-88
2024/04/13 10:40:51;;;;;;;3.08;1.40;;;;;;;22.37;57.59;101631.59;5338741;26;20282;-87
2024/04/13 10:43:21;;;;;;;1.77;1.25;;;;;;;22.42;56.44;101615.69;5339437;26;20586;-87
2024/04/13 10:45:51;;;;;;;2.28;1.58;;;;;;;22.44;56.56;101629.97;5336509;26;20272;-87
2024/04/13 10:48:21;;;;;;;3.10;1.70;;;;;;;22.44;56.58;101628.09;5328991;26;20898;-87
2024/04/13 10:50:48;;;;;;;1.90;1.45;;;;;;;22.41;56.19;101622.13;5337598;26;20828;-87
2024/04/13 10:53:19;;;;;;;2.30;1.70;;;;;;;22.40;56.27;101615.81;5329812;26;20279;-87
2024/04/13 10:55:46;;;;;;;2.88;1.63;;;;;;;22.38;56.56;101617.88;5336938;26;20245;-86
2024/04/13 10:58:15;;;;;;;3.45;1.52;;;;;;;22.38;56.66;101625.16;5331294;26;20729;-87
2024/04/13 11:00:44;;;;;;;1.80;1.60;;;;;;;22.37;56.28;101624.28;5338294;26;20275;-87
2024/04/13 11:03:13;;;;;;;1.70;1.30;;;;;;;22.41;55.71;101614.81;5338548;26;20248;-86
2024/04/13 11:05:39;;;;;;;1.60;1.20;;;;;;;22.45;56.01;101618.09;5339390;26;20244;-86
2024/04/13 11:08:08;;;;;;;2.22;1.60;;;;;;;22.52;56.33;101608.34;5333385;26;20350;-86
2024/04/13 11:10:38;;;;;;;4.70;1.60;;;;;;;22.58;56.20;101615.88;5330972;26;20237;-87
2024/04/13 11:13:08;;;;;;;1.85;1.30;;;;;;;22.67;56.46;101597.84;5339012;26;20796;-87
2024/04/13 11:15:34;;;;;;;3.50;1.85;;;;;;;22.72;56.29;101604.53;5338252;26;20787;-87
2024/04/13 11:18:02;;;;;;;1.98;1.60;;;;;;;22.77;55.74;101594.06;5329401;26;20237;-89
2024/04/13 11:20:31;;;;;;;2.33;1.52;;;;;;;22.80;55.58;101595.63;5336569;26;20284;-87
2024/04/13 11:23:01;;;;;;;3.58;1.60;;;;;;;22.85;55.57;101598.75;5338807;26;20244;-86